createdAt,value
2018-09-14T00:00:47.108Z,4.07
2018-09-14T00:03:16.026Z,3.90
2018-09-14T00:05:44.320Z,3.90
2018-09-14T00:08:13.036Z,4.43
2018-09-14T00:10:41.484Z,4.03
2018-09-14T00:13:09.654Z,3.97
2018-09-14T00:15:37.905Z,4.27
2018-09-14T00:18:06.154Z,4.23
2018-09-14T00:20:35.154Z,4.20
2018-09-14T00:23:03.303Z,4.23
2018-09-14T00:25:32.365Z,4.50
2018-09-14T00:28:00.548Z,4.30
2018-09-14T00:30:29.378Z,4.80
2018-09-14T00:32:57.632Z,4.63
2018-09-14T00:35:26.235Z,4.23
2018-09-14T00:37:54.477Z,4.67
2018-09-14T00:40:22.778Z,4.20
2018-09-14T00:42:51.472Z,4.40
2018-09-14T00:45:19.660Z,4.60
2018-09-14T00:47:47.849Z,4.67
2018-09-14T00:50:16.760Z,4.70
2018-09-14T00:52:44.994Z,4.97
2018-09-14T00:55:13.206Z,4.17
2018-09-14T00:57:41.427Z,4.60
2018-09-14T01:00:09.692Z,4.03
2018-09-14T01:02:38.019Z,3.40
2018-09-14T01:05:06.127Z,3.40
2018-09-14T01:07:35.626Z,3.07
2018-09-14T01:10:04.486Z,3.27
2018-09-14T01:12:32.667Z,2.83
2018-09-14T01:15:01.790Z,3.03
2018-09-14T01:17:30.719Z,2.67
2018-09-14T01:19:58.957Z,2.40
2018-09-14T01:22:27.233Z,2.00
2018-09-14T01:24:56.206Z,2.90
2018-09-14T01:27:24.311Z,2.57
2018-09-14T01:29:52.688Z,2.00
2018-09-14T01:32:20.899Z,2.50
2018-09-14T01:34:49.027Z,2.30
2018-09-14T01:37:17.486Z,2.40
2018-09-14T01:39:45.762Z,2.57
2018-09-14T01:42:13.877Z,3.23
2018-09-14T01:44:42.239Z,3.20
2018-09-14T01:47:13.802Z,3.20
2018-09-14T01:49:41.980Z,3.03
2018-09-14T01:52:10.182Z,3.00
2018-09-14T01:54:38.403Z,3.20
2018-09-14T01:57:06.697Z,2.50
2018-09-14T01:59:34.904Z,2.90
2018-09-14T02:02:03.141Z,2.90
2018-09-14T02:04:31.444Z,3.10
2018-09-14T02:06:59.747Z,3.20
2018-09-14T02:09:27.878Z,3.10
2018-09-14T02:11:55.978Z,2.60
2018-09-14T02:14:24.158Z,2.27
2018-09-14T02:16:52.402Z,3.00
2018-09-14T02:19:20.517Z,2.40
2018-09-14T02:21:48.725Z,2.30
2018-09-14T02:24:16.914Z,2.33
2018-09-14T02:26:46.409Z,2.20
2018-09-14T02:29:14.699Z,2.20
2018-09-14T02:31:42.952Z,2.60
2018-09-14T02:34:11.230Z,2.60
2018-09-14T02:36:39.500Z,2.47
2018-09-14T02:39:07.899Z,2.43
2018-09-14T02:41:36.166Z,2.50
2018-09-14T02:44:04.231Z,2.57
2018-09-14T02:46:32.545Z,2.53
2018-09-14T02:49:00.691Z,2.90
2018-09-14T02:51:28.849Z,3.00
2018-09-14T02:53:57.087Z,3.57
2018-09-14T02:56:25.409Z,3.13
2018-09-14T02:58:53.492Z,3.23
2018-09-14T03:01:21.896Z,3.57
2018-09-14T03:03:50.184Z,3.77
2018-09-14T03:06:18.306Z,3.57
2018-09-14T03:08:46.405Z,4.20
2018-09-14T03:11:14.531Z,5.60
2018-09-14T03:13:42.652Z,5.27
2018-09-14T03:16:11.496Z,5.20
2018-09-14T03:18:39.616Z,5.60
2018-09-14T03:21:07.669Z,5.57
2018-09-14T03:23:35.807Z,5.87
2018-09-14T03:26:03.915Z,5.93
2018-09-14T03:28:32.059Z,7.23
2018-09-14T03:31:00.147Z,6.20
2018-09-14T03:33:28.322Z,6.03
2018-09-14T03:35:56.448Z,6.80
2018-09-14T03:38:24.560Z,6.70
2018-09-14T03:40:52.707Z,6.77
2018-09-14T03:43:20.808Z,6.63
2018-09-14T03:45:49.109Z,6.40
2018-09-14T03:48:17.204Z,6.50
2018-09-14T03:50:45.348Z,6.47
2018-09-14T03:53:13.527Z,6.27
2018-09-14T03:55:41.678Z,6.10
2018-09-14T03:58:09.841Z,6.07
2018-09-14T04:00:37.917Z,5.97
2018-09-14T04:03:07.597Z,6.23
2018-09-14T04:05:35.889Z,6.40
2018-09-14T04:08:03.991Z,6.50
2018-09-14T04:10:32.076Z,5.30
2018-09-14T04:13:00.118Z,5.33
2018-09-14T04:15:28.198Z,5.30
2018-09-14T04:17:56.362Z,5.50
2018-09-14T04:20:24.544Z,4.83
2018-09-14T04:22:53.754Z,5.07
2018-09-14T04:25:21.824Z,5.07
2018-09-14T04:27:49.913Z,5.07
2018-09-14T04:30:18.388Z,5.13
2018-09-14T04:32:46.462Z,4.90
2018-09-14T04:35:14.585Z,4.33
2018-09-14T04:37:42.670Z,5.30
2018-09-14T04:40:10.799Z,4.80
2018-09-14T04:42:38.950Z,5.17
2018-09-14T04:45:07.132Z,4.33
2018-09-14T04:47:35.209Z,3.90
2018-09-14T04:50:03.364Z,3.60
2018-09-14T04:52:31.488Z,3.77
2018-09-14T04:54:59.652Z,4.33
2018-09-14T04:57:27.820Z,4.60
2018-09-14T04:59:55.983Z,4.20
2018-09-14T05:02:24.069Z,4.60
2018-09-14T05:04:52.457Z,4.50
2018-09-14T05:07:21.362Z,4.83
2018-09-14T05:09:49.450Z,3.97
2018-09-14T05:12:17.593Z,4.23
2018-09-14T05:14:45.714Z,4.33
2018-09-14T05:17:13.821Z,4.43
2018-09-14T05:19:41.845Z,4.33
2018-09-14T05:22:09.991Z,5.20
2018-09-14T05:24:38.159Z,5.17
2018-09-14T05:27:06.223Z,5.70
2018-09-14T05:29:34.713Z,5.67
2018-09-14T05:32:02.886Z,6.43
2018-09-14T05:34:31.061Z,6.10
2018-09-14T05:36:59.211Z,6.10
2018-09-14T05:39:27.802Z,6.23
2018-09-14T05:41:56.172Z,6.77
2018-09-14T05:44:24.226Z,7.27
2018-09-14T05:46:52.404Z,7.33
2018-09-14T05:49:21.398Z,7.30
2018-09-14T05:51:49.474Z,6.83
2018-09-14T05:54:17.673Z,7.40
2018-09-14T05:56:45.923Z,6.60
2018-09-14T05:59:14.014Z,7.27
2018-09-14T06:01:42.291Z,7.17
2018-09-14T06:06:45.277Z,6.73
2018-09-14T06:09:13.975Z,6.00
2018-09-14T06:11:43.153Z,6.60
2018-09-14T06:14:11.335Z,6.37
2018-09-14T06:16:39.723Z,4.77
2018-09-14T06:19:08.142Z,5.47
2018-09-14T06:21:36.299Z,5.40
2018-09-14T06:24:04.416Z,5.73
2018-09-14T06:26:32.569Z,5.70
2018-09-14T06:29:01.583Z,6.27
2018-09-14T06:31:29.671Z,6.07
2018-09-14T06:33:57.720Z,6.37
2018-09-14T06:36:25.926Z,6.87
2018-09-14T06:38:54.813Z,6.50
2018-09-14T06:41:22.951Z,7.67
2018-09-14T06:43:51.661Z,7.20
2018-09-14T06:46:20.019Z,7.10
2018-09-14T06:48:48.137Z,6.80
2018-09-14T06:51:16.343Z,7.07
2018-09-14T06:53:44.475Z,7.17
2018-09-14T06:56:14.019Z,8.03
2018-09-14T06:58:42.151Z,7.00
2018-09-14T07:01:10.275Z,7.80
2018-09-14T07:03:38.434Z,8.27
2018-09-14T07:06:06.559Z,8.37
2018-09-14T07:08:34.700Z,8.10
2018-09-14T07:11:03.879Z,7.23
2018-09-14T07:13:32.951Z,5.63
2018-09-14T07:16:01.048Z,6.20
2018-09-14T07:18:29.159Z,5.70
2018-09-14T07:20:57.981Z,5.47
2018-09-14T07:23:27.029Z,3.93
2018-09-14T07:25:55.248Z,5.33
2018-09-14T07:28:23.938Z,5.10
2018-09-14T07:30:52.041Z,5.40
2018-09-14T07:33:20.182Z,5.27
2018-09-14T07:35:49.208Z,5.17
2018-09-14T07:38:17.300Z,5.50
2018-09-14T07:40:46.206Z,5.23
2018-09-14T07:43:14.307Z,5.23
2018-09-14T07:45:43.138Z,5.30
2018-09-14T07:48:11.455Z,5.27
2018-09-14T07:50:40.025Z,4.57
2018-09-14T07:53:08.593Z,5.70
2018-09-14T07:55:36.838Z,4.80
2018-09-14T07:58:05.606Z,4.67
2018-09-14T08:00:34.678Z,4.63
2018-09-14T08:03:03.051Z,5.30
2018-09-14T08:05:31.364Z,4.83
2018-09-14T08:07:59.825Z,4.83
2018-09-14T08:10:28.048Z,4.30
2018-09-14T08:12:56.600Z,5.30
2018-09-14T08:15:24.808Z,5.07
2018-09-14T08:17:52.959Z,8.93
2018-09-14T08:20:21.282Z,5.90
2018-09-14T08:22:49.734Z,6.23
2018-09-14T08:25:18.184Z,5.93
2018-09-14T08:27:46.607Z,5.40
2018-09-14T08:30:14.972Z,5.43
2018-09-14T08:32:43.293Z,4.73
2018-09-14T08:35:11.644Z,4.17
2018-09-14T08:37:40.868Z,4.23
2018-09-14T08:40:09.239Z,4.27
2018-09-14T08:42:37.623Z,4.50
2018-09-14T08:45:08.245Z,4.47
2018-09-14T08:47:36.690Z,5.17
2018-09-14T08:50:05.563Z,5.00
2018-09-14T08:52:34.000Z,4.87
2018-09-14T08:55:03.297Z,4.13
2018-09-14T08:57:34.332Z,3.73
2018-09-14T09:00:02.770Z,4.10
2018-09-14T09:02:31.132Z,4.50
2018-09-14T09:04:59.481Z,3.73
2018-09-14T09:07:27.820Z,4.33
2018-09-14T09:09:56.523Z,4.10
2018-09-14T09:12:24.966Z,4.33
2018-09-14T09:14:53.328Z,4.03
2018-09-14T09:17:21.672Z,4.80
2018-09-14T09:19:50.067Z,4.20
2018-09-14T09:22:18.390Z,4.33
2018-09-14T09:24:46.854Z,4.33
2018-09-14T09:27:16.618Z,4.53
2018-09-14T09:29:45.076Z,5.27
2018-09-14T09:32:14.179Z,5.17
2018-09-14T09:34:42.555Z,4.43
2018-09-14T09:37:10.872Z,3.97
2018-09-14T09:39:40.051Z,4.33
2018-09-14T09:42:08.466Z,4.10
2018-09-14T09:44:36.880Z,5.07
2018-09-14T09:47:05.586Z,4.13
2018-09-14T09:49:33.656Z,3.80
2018-09-14T09:52:02.760Z,4.17
2018-09-14T09:54:31.689Z,3.77
2018-09-14T09:56:59.883Z,3.70
2018-09-14T09:59:28.099Z,4.00
2018-09-14T10:02:02.116Z,4.07
2018-09-14T10:04:34.600Z,3.90
2018-09-14T10:07:02.739Z,4.03
2018-09-14T10:09:31.049Z,3.47
2018-09-14T10:12:00.205Z,3.63
2018-09-14T10:14:28.289Z,3.97
2018-09-14T10:16:56.491Z,4.00
2018-09-14T10:19:24.633Z,3.57
2018-09-14T10:21:52.807Z,3.87
2018-09-14T10:24:20.981Z,4.50
2018-09-14T10:26:49.154Z,3.83
2018-09-14T10:29:17.306Z,4.20
2018-09-14T10:31:46.102Z,4.03
2018-09-14T10:34:15.170Z,3.57
2018-09-14T10:36:45.720Z,4.27
2018-09-14T10:39:13.828Z,4.00
2018-09-14T10:41:42.013Z,4.33
2018-09-14T10:44:13.330Z,4.10
2018-09-14T10:46:44.271Z,3.90
2018-09-14T10:49:12.440Z,3.87
2018-09-14T10:51:40.535Z,3.30
2018-09-14T10:54:08.675Z,4.30
2018-09-14T10:56:36.836Z,4.20
2018-09-14T10:59:05.028Z,4.00
2018-09-14T11:01:33.187Z,4.20
2018-09-14T11:04:01.346Z,3.77
2018-09-14T11:06:29.453Z,3.40
2018-09-14T11:08:57.554Z,4.83
2018-09-14T11:11:25.705Z,3.90
2018-09-14T11:13:53.769Z,3.80
2018-09-14T11:16:21.844Z,3.50
2018-09-14T11:18:50.015Z,4.10
2018-09-14T11:21:18.618Z,4.67
2018-09-14T11:23:46.699Z,3.70
2018-09-14T11:26:14.841Z,3.83
2018-09-14T11:28:43.751Z,3.60
2018-09-14T11:31:13.472Z,3.63
2018-09-14T11:33:41.693Z,4.30
2018-09-14T11:36:10.215Z,4.53
2018-09-14T11:38:38.580Z,4.17
2018-09-14T11:41:07.028Z,4.67
2018-09-14T11:43:35.171Z,4.23
2018-09-14T11:46:03.407Z,4.27
2018-09-14T11:48:31.547Z,4.57
2018-09-14T11:50:59.941Z,4.80
2018-09-14T11:53:28.091Z,3.87
2018-09-14T11:55:56.331Z,4.17
2018-09-14T11:58:24.705Z,4.97
2018-09-14T12:00:53.245Z,4.83
2018-09-14T12:03:22.204Z,4.57
2018-09-14T12:05:51.075Z,4.60
2018-09-14T12:08:19.218Z,4.00
2018-09-14T12:10:47.518Z,4.07
2018-09-14T12:13:15.642Z,4.43
2018-09-14T12:15:43.865Z,4.10
2018-09-14T12:18:12.114Z,4.50
2018-09-14T12:20:40.985Z,3.77
2018-09-14T12:23:09.268Z,4.30
2018-09-14T12:25:38.712Z,4.00
2018-09-14T12:28:07.957Z,3.97
2018-09-14T12:30:36.054Z,4.40
2018-09-14T12:33:04.102Z,4.10
2018-09-14T12:35:32.360Z,4.00
2018-09-14T12:38:00.414Z,4.33
2018-09-14T12:40:28.883Z,3.83
2018-09-14T12:42:57.090Z,4.43
2018-09-14T12:45:25.436Z,4.20
2018-09-14T12:47:53.609Z,4.17
2018-09-14T12:50:21.996Z,4.00
2018-09-14T12:52:50.470Z,3.80
2018-09-14T12:55:18.848Z,4.20
2018-09-14T12:57:47.350Z,4.30
2018-09-14T13:00:15.827Z,3.70
2018-09-14T13:02:44.673Z,3.90
2018-09-14T13:05:13.053Z,4.30
2018-09-14T13:07:41.489Z,3.60
2018-09-14T13:10:09.911Z,3.60
2018-09-14T13:12:38.267Z,3.80
2018-09-14T13:15:06.634Z,3.80
2018-09-14T13:17:35.112Z,3.70
2018-09-14T13:20:03.440Z,4.37
2018-09-14T13:22:31.880Z,3.20
2018-09-14T13:25:00.269Z,3.97
2018-09-14T13:27:28.366Z,3.73
2018-09-14T13:29:56.862Z,3.80
2018-09-14T13:32:25.200Z,3.20
2018-09-14T13:34:55.262Z,4.00
2018-09-14T13:37:23.609Z,3.67
2018-09-14T13:39:52.140Z,3.37
2018-09-14T13:42:20.528Z,3.00
2018-09-14T13:44:48.926Z,3.37
2018-09-14T13:47:17.329Z,3.10
2018-09-14T13:49:45.669Z,2.97
2018-09-14T13:52:14.174Z,2.83
2018-09-14T13:54:42.530Z,3.00
2018-09-14T13:57:10.894Z,3.10
2018-09-14T13:59:39.341Z,2.87
2018-09-14T14:02:08.539Z,2.57
2018-09-14T14:04:36.964Z,2.60
2018-09-14T14:07:05.365Z,2.97
2018-09-14T14:09:33.769Z,2.53
2018-09-14T14:12:02.194Z,2.67
2018-09-14T14:14:30.560Z,3.00
2018-09-14T14:16:59.004Z,2.77
2018-09-14T14:19:27.279Z,2.87
2018-09-14T14:21:55.745Z,2.67
2018-09-14T14:24:24.123Z,2.93
2018-09-14T14:26:52.638Z,3.33
2018-09-14T14:29:21.085Z,3.00
2018-09-14T14:31:49.524Z,3.60
2018-09-14T14:34:18.830Z,3.10
2018-09-14T14:36:48.162Z,2.87
2018-09-14T14:39:17.311Z,3.00
2018-09-14T14:41:48.408Z,2.60
2018-09-14T14:44:20.838Z,3.27
2018-09-14T14:46:50.750Z,2.30
2018-09-14T14:49:20.135Z,3.27
2018-09-14T14:51:48.638Z,3.00
2018-09-14T14:54:16.951Z,2.60
2018-09-14T14:56:45.315Z,2.50
2018-09-14T14:59:13.670Z,2.37
2018-09-14T15:01:42.105Z,2.90
2018-09-14T15:04:10.555Z,2.60
2018-09-14T15:06:40.068Z,2.60
2018-09-14T15:09:10.500Z,4.07
2018-09-14T15:11:39.014Z,3.43
2018-09-14T15:14:07.424Z,3.00
2018-09-14T15:16:35.830Z,2.30
2018-09-14T15:19:04.390Z,2.30
2018-09-14T15:24:14.712Z,2.40
2018-09-14T15:26:43.355Z,2.97
2018-09-14T15:29:13.742Z,2.80
2018-09-14T15:31:42.204Z,2.97
2018-09-14T15:34:18.238Z,2.77
2018-09-14T15:36:46.630Z,2.47
2018-09-14T15:39:15.407Z,2.70
2018-09-14T15:41:43.517Z,2.20
2018-09-14T15:44:11.709Z,2.77
2018-09-14T15:46:40.648Z,2.40
2018-09-14T15:51:44.561Z,3.00
2018-09-14T15:54:12.629Z,2.87
2018-09-14T15:56:40.798Z,2.50
2018-09-14T15:59:09.024Z,2.80
2018-09-14T16:01:38.060Z,3.23
2018-09-14T16:04:06.139Z,2.37
2018-09-14T16:06:34.308Z,2.87
2018-09-14T16:09:02.524Z,2.70
2018-09-14T16:11:30.596Z,2.73
2018-09-14T16:13:59.332Z,2.27
2018-09-14T16:16:27.876Z,2.40
2018-09-14T16:18:56.031Z,2.80
2018-09-14T16:21:25.305Z,2.70
2018-09-14T16:23:53.442Z,2.40
2018-09-14T16:26:24.927Z,2.43
2018-09-14T16:28:53.175Z,2.67
2018-09-14T16:31:21.280Z,2.50
2018-09-14T16:33:49.397Z,2.67
2018-09-14T16:36:17.601Z,2.30
2018-09-14T16:38:45.724Z,2.80
2018-09-14T16:41:14.563Z,2.80
2018-09-14T16:43:42.690Z,2.90
2018-09-14T16:46:10.909Z,2.40
2018-09-14T16:48:39.432Z,3.37
2018-09-14T16:51:07.593Z,2.90
2018-09-14T16:53:35.715Z,3.23
2018-09-14T16:56:03.854Z,3.13
2018-09-14T16:58:31.973Z,3.17
2018-09-14T17:01:00.714Z,3.80
2018-09-14T17:03:28.940Z,3.30
2018-09-14T17:05:57.076Z,3.40
2018-09-14T17:08:25.271Z,3.50
2018-09-14T17:10:53.389Z,3.20
2018-09-14T17:13:21.450Z,3.00
2018-09-14T17:15:50.300Z,3.33
2018-09-14T17:18:19.218Z,3.07
2018-09-14T17:20:47.354Z,3.10
2018-09-14T17:23:15.506Z,3.17
2018-09-14T17:25:44.599Z,3.60
2018-09-14T17:28:12.683Z,3.50
2018-09-14T17:30:41.386Z,3.30
2018-09-14T17:33:09.554Z,3.63
2018-09-14T17:35:37.745Z,3.80
2018-09-14T17:38:06.190Z,3.57
2018-09-14T17:40:34.368Z,3.83
2018-09-14T17:43:02.534Z,4.00
2018-09-14T17:45:30.702Z,3.80
2018-09-14T17:47:58.749Z,4.00
2018-09-14T17:50:26.995Z,3.97
2018-09-14T17:52:55.121Z,4.43
2018-09-14T17:58:08.095Z,4.40
2018-09-14T18:00:36.208Z,4.33
2018-09-14T18:03:04.358Z,4.03
2018-09-14T18:05:32.455Z,4.13
2018-09-14T18:08:00.569Z,4.50
2018-09-14T18:10:29.322Z,3.90
2018-09-14T18:12:57.492Z,4.30
2018-09-14T18:15:25.930Z,5.03
2018-09-14T18:17:54.040Z,4.90
2018-09-14T18:20:22.187Z,4.50
2018-09-14T18:23:03.461Z,4.23
2018-09-14T18:25:31.616Z,4.07
2018-09-14T18:27:59.736Z,3.70
2018-09-14T18:30:27.828Z,4.33
2018-09-14T18:32:56.061Z,3.50
2018-09-14T18:35:24.207Z,3.53
2018-09-14T18:37:53.497Z,3.57
2018-09-14T18:40:21.643Z,3.63
2018-09-14T18:42:50.015Z,4.27
2018-09-14T18:45:18.245Z,3.70
2018-09-14T18:47:46.546Z,4.10
2018-09-14T18:50:14.773Z,4.20
2018-09-14T18:52:43.113Z,4.43
2018-09-14T18:55:12.122Z,4.20
2018-09-14T18:57:40.239Z,4.67
2018-09-14T19:00:08.594Z,4.60
2018-09-14T19:02:36.715Z,5.50
2018-09-14T19:05:04.946Z,5.83
2018-09-14T19:07:33.960Z,5.57
2018-09-14T19:10:04.108Z,5.20
2018-09-14T19:12:32.408Z,4.90
2018-09-14T19:15:00.585Z,4.07
2018-09-14T19:17:28.761Z,4.67
2018-09-14T19:19:57.007Z,5.30
2018-09-14T19:22:25.151Z,5.37
2018-09-14T19:24:53.354Z,4.50
2018-09-14T19:27:22.258Z,5.43
2018-09-14T19:29:50.480Z,4.90
2018-09-14T19:32:20.014Z,5.00
2018-09-14T19:34:50.056Z,4.90
2018-09-14T19:37:19.028Z,5.40
2018-09-14T19:39:47.274Z,5.00
2018-09-14T19:42:15.488Z,5.80
2018-09-14T19:44:43.804Z,6.27
2018-09-14T19:47:11.934Z,5.83
2018-09-14T19:49:40.637Z,4.83
2018-09-14T19:52:09.658Z,5.13
2018-09-14T19:54:38.056Z,4.97
2018-09-14T19:57:06.182Z,5.23
2018-09-14T19:59:34.323Z,4.87
2018-09-14T20:02:02.536Z,5.83
2018-09-14T20:04:30.591Z,5.60
2018-09-14T20:06:58.868Z,5.53
2018-09-14T20:09:27.116Z,5.10
2018-09-14T20:11:55.341Z,5.50
2018-09-14T20:14:23.569Z,4.60
2018-09-14T20:16:51.864Z,5.03
2018-09-14T20:19:20.414Z,5.10
2018-09-14T20:21:48.627Z,5.00
2018-09-14T20:24:17.640Z,5.23
2018-09-14T20:26:45.867Z,6.47
2018-09-14T20:29:14.412Z,4.83
2018-09-14T20:31:44.030Z,5.00
2018-09-14T20:34:12.231Z,5.00
2018-09-14T20:36:40.486Z,5.07
2018-09-14T20:39:16.317Z,4.43
2018-09-14T20:41:44.530Z,4.90
2018-09-14T20:44:13.936Z,4.97
2018-09-14T20:46:42.070Z,4.87
2018-09-14T20:49:10.307Z,5.00
2018-09-14T20:51:38.877Z,5.07
2018-09-14T20:54:07.344Z,5.20
2018-09-14T20:56:36.377Z,4.77
2018-09-14T20:59:05.614Z,5.03
2018-09-14T21:01:33.821Z,4.50
2018-09-14T21:04:03.274Z,4.70
2018-09-14T21:06:32.424Z,5.80
2018-09-14T21:09:00.697Z,5.73
2018-09-14T21:11:29.375Z,5.17
2018-09-14T21:13:57.595Z,5.43
2018-09-14T21:16:25.854Z,5.33
2018-09-14T21:18:54.494Z,6.10
2018-09-14T21:21:22.669Z,5.47
2018-09-14T21:23:50.811Z,5.30
2018-09-14T21:26:18.953Z,5.53
2018-09-14T21:28:47.282Z,7.27
2018-09-14T21:31:15.470Z,5.40
2018-09-14T21:33:43.608Z,5.07
2018-09-14T21:36:11.776Z,5.47
2018-09-14T21:38:39.943Z,5.43
2018-09-14T21:41:08.181Z,5.67
2018-09-14T21:43:36.492Z,5.83
2018-09-14T21:46:04.644Z,5.60
2018-09-14T21:48:32.783Z,6.33
2018-09-14T21:51:00.988Z,5.87
2018-09-14T21:53:29.094Z,7.07
2018-09-14T21:55:57.334Z,7.20
2018-09-14T21:58:25.513Z,7.47
2018-09-14T22:00:59.138Z,7.03
2018-09-14T22:03:27.250Z,7.50
2018-09-14T22:05:55.987Z,6.60
2018-09-14T22:08:24.226Z,6.37
2018-09-14T22:10:52.397Z,6.20
2018-09-14T22:13:21.687Z,6.73
2018-09-14T22:15:50.632Z,6.50
2018-09-14T22:18:18.723Z,6.67
2018-09-14T22:20:47.010Z,6.33
2018-09-14T22:23:15.176Z,6.70
2018-09-14T22:25:43.311Z,7.23
2018-09-14T22:28:11.435Z,7.27
2018-09-14T22:30:39.602Z,6.77
2018-09-14T22:33:08.717Z,6.73
2018-09-14T22:35:36.825Z,6.70
2018-09-14T22:38:04.871Z,6.87
2018-09-14T22:40:33.015Z,6.70
2018-09-14T22:43:01.159Z,6.33
2018-09-14T22:45:30.414Z,6.43
2018-09-14T22:47:58.553Z,6.47
2018-09-14T22:50:26.634Z,6.23
2018-09-14T22:52:55.570Z,6.43
2018-09-14T22:55:23.744Z,6.43
2018-09-14T22:57:51.866Z,6.00
2018-09-14T23:00:26.490Z,5.90
2018-09-14T23:02:55.219Z,6.03
2018-09-14T23:05:23.871Z,5.80
2018-09-14T23:07:52.039Z,5.93
2018-09-14T23:10:20.707Z,5.97
2018-09-14T23:12:48.962Z,6.47
2018-09-14T23:15:17.061Z,6.10
2018-09-14T23:17:45.118Z,6.13
2018-09-14T23:20:13.257Z,5.63
2018-09-14T23:22:43.197Z,6.20
2018-09-14T23:25:11.302Z,5.87
2018-09-14T23:27:39.460Z,6.00
2018-09-14T23:30:07.861Z,5.90
2018-09-14T23:32:36.656Z,6.20
2018-09-14T23:35:04.830Z,5.57
2018-09-14T23:37:33.008Z,6.17
2018-09-14T23:40:01.158Z,6.30
2018-09-14T23:42:29.369Z,5.87
2018-09-14T23:44:57.528Z,5.93
2018-09-14T23:47:25.681Z,6.13
2018-09-14T23:49:53.779Z,6.13
2018-09-14T23:52:21.909Z,6.50
2018-09-14T23:54:50.096Z,5.97
2018-09-14T23:57:18.225Z,6.10
2018-09-14T23:59:46.350Z,6.23
